South Broadway, Washington
Current Conditions -  °F | °C
As of 5:24 PM on Tuesday 27 Jan 2015 (Local Time) from KYKM Reporting Station
Overcast Overcast  
Wind Chill: 38°   Ceiling: 400
Heat Index: 38°   Visibility: 7mi
Dew Point: 35°   Wind: 3mph
Humidity: 89%   Direction: 90°E
Pressure: 30.1"   Gusts: NA
Location:  46.562°N, 120.899°W
Report Text: KYKM 280124Z 09003KT 7SM OVC004 03/02 A3010 RMK AO2 T00330017
Loading
Personal Weather Stations






























Interactive Weather Map New forecast layout! Learn more

10-Day Weather Forecast

Advertisements
Track Severe Weather on mobile